Time;durP1;ratioP1;P1;durP2;ratioP2;P2;SDS_P1;SDS_P2;PMS_P1;PMS_P2;Temp;Humidity;BMP_temperature;BMP_pressure;BME280_temperature;BME280_humidity;BME280_pressure;Samples;Min_cycle;Max_cycle;Signal;HPM_P1;HPM_P2
2022/01/28 00:01:40;;;;;;;15.40;10.30;;;;;;;4.97;94.39;99276.91;4124775;28;20208;-89
2022/01/28 00:03:43;;;;;;;14.65;10.00;;;;;;;5.00;94.58;99273.41;4138426;28;20204;-89
2022/01/28 00:05:46;;;;;;;13.82;9.32;;;;;;;4.99;95.15;99274.28;4154842;28;20214;-89
2022/01/28 00:07:50;;;;;;;15.30;11.05;;;;;;;4.99;94.09;99290.66;4126186;28;20216;-89
2022/01/28 00:09:53;;;;;;;14.77;9.60;;;;;;;4.93;94.50;99287.38;4154255;28;20208;-89
2022/01/28 00:11:56;;;;;;;13.50;9.40;;;;;;;4.96;94.78;99289.88;4139963;28;20220;-89
2022/01/28 00:14:18;;;;;;;14.02;9.80;;;;;;;4.98;94.17;99290.69;4156189;28;20247;-89
2022/01/28 00:16:49;;;;;;;14.15;9.73;;;;;;;4.93;94.68;99287.38;4145664;28;20305;-89
2022/01/28 00:38:08;;;;;;;13.65;10.40;;;;;;;4.96;95.24;99284.72;4139764;28;20307;-90
2022/01/28 00:40:11;;;;;;;13.45;9.98;;;;;;;4.94;94.60;99287.34;4138229;28;20260;-90
2022/01/28 00:42:14;;;;;;;15.70;10.02;;;;;;;4.95;95.25;99288.19;4156280;28;20277;-90
2022/01/28 00:44:20;;;;;;;15.27;10.10;;;;;;;4.90;94.65;99290.91;4118337;28;20268;-90
2022/01/28 00:46:23;;;;;;;14.55;10.10;;;;;;;4.92;95.72;99290.88;4140361;28;20774;-90
2022/01/28 00:48:28;;;;;;;12.70;8.70;;;;;;;4.88;95.68;99291.81;4143848;28;20200;-90
2022/01/28 00:50:31;;;;;;;17.92;10.15;;;;;;;4.95;95.38;99303.72;4155779;28;20545;-89
2022/01/28 00:52:34;;;;;;;17.98;11.35;;;;;;;4.97;95.47;99300.16;4141705;28;20220;-89
2022/01/28 00:54:37;;;;;;;15.00;10.07;;;;;;;4.98;95.38;99298.47;4127346;28;20208;-90
2022/01/28 00:56:40;;;;;;;15.88;10.13;;;;;;;4.98;95.07;99301.03;4140135;28;20234;-90
2022/01/28 00:58:43;;;;;;;15.25;10.65;;;;;;;4.99;95.27;99298.41;4128220;28;20205;-90
2022/01/28 01:00:46;;;;;;;15.68;10.88;;;;;;;5.02;95.52;99295.75;4141818;28;20624;-90
2022/01/28 01:02:52;;;;;;;13.98;9.80;;;;;;;5.04;95.58;99299.13;4144528;28;20196;-90
2022/01/28 01:04:57;;;;;;;15.25;10.02;;;;;;;5.06;95.10;99301.66;4142616;28;20204;-90
2022/01/28 01:07:01;;;;;;;15.57;10.57;;;;;;;5.09;95.00;99306.75;4156656;28;20289;-90
2022/01/28 01:09:06;;;;;;;14.18;10.25;;;;;;;5.09;95.34;99312.75;4138906;28;20676;-90
2022/01/28 01:11:11;;;;;;;14.65;9.90;;;;;;;5.09;95.26;99307.59;4136505;28;20224;-89
2022/01/28 01:13:14;;;;;;;14.00;9.88;;;;;;;5.11;94.69;99310.13;4155595;28;20854;-90
2022/01/28 01:15:21;;;;;;;17.30;10.55;;;;;;;5.13;94.87;99324.72;4126655;28;20200;-89
2022/01/28 01:17:32;;;;;;;13.48;9.63;;;;;;;5.16;94.74;99320.31;4124342;28;20621;-90
2022/01/28 01:19:40;;;;;;;15.23;11.02;;;;;;;5.14;94.33;99324.69;4136405;28;20708;-90
2022/01/28 01:21:45;;;;;;;14.27;10.73;;;;;;;5.16;94.90;99327.22;4136938;28;20203;-89
2022/01/28 01:23:51;;;;;;;15.18;10.80;;;;;;;5.18;94.40;99328.03;4128709;28;20708;-90
2022/01/28 01:25:59;;;;;;;14.77;9.73;;;;;;;5.19;94.17;99334.91;4141065;28;20207;-90
2022/01/28 01:28:05;;;;;;;14.82;10.30;;;;;;;5.19;94.63;99332.31;4140493;28;20208;-90
2022/01/28 01:30:13;;;;;;;16.20;11.10;;;;;;;5.21;94.66;99336.53;4145404;28;20208;-90
2022/01/28 01:32:18;;;;;;;15.43;10.10;;;;;;;5.19;94.38;99346.09;4135810;28;20211;-90
2022/01/28 01:34:22;;;;;;;16.15;10.43;;;;;;;5.19;93.90;99346.09;4123723;28;20201;-89
2022/01/28 01:36:26;;;;;;;15.13;10.35;;;;;;;5.18;94.45;99340.97;4138236;28;20247;-90
2022/01/28 01:38:33;;;;;;;16.02;10.55;;;;;;;5.17;94.37;99345.28;4140286;28;20712;-90
2022/01/28 01:40:44;;;;;;;15.35;11.07;;;;;;;5.18;94.36;99352.13;4135929;28;20204;-90
2022/01/28 01:42:51;;;;;;;17.27;10.38;;;;;;;5.20;94.67;99355.56;4160351;28;20233;-90
2022/01/28 01:45:39;;;;;;;13.90;10.07;;;;;;;5.22;93.59;99360.69;4141004;28;20204;-90
2022/01/28 01:52:20;;;;;;;15.00;9.38;;;;;;;5.20;94.43;99360.72;4126435;28;20216;-90
2022/01/28 01:54:27;;;;;;;14.55;9.63;;;;;;;5.27;94.58;99371.72;4136477;28;20203;-89
2022/01/28 01:56:31;;;;;;;15.45;10.63;;;;;;;5.25;93.85;99379.53;4123010;28;20664;-89
2022/01/28 01:58:35;;;;;;;16.10;10.20;;;;;;;5.25;94.00;99382.13;4151700;28;20216;-89
2022/01/28 02:00:38;;;;;;;14.15;10.35;;;;;;;5.27;93.60;99380.31;4129077;28;20203;-90
2022/01/28 02:02:41;;;;;;;15.00;10.10;;;;;;;5.26;93.43;99389.00;4157580;28;20212;-90
2022/01/28 02:04:45;;;;;;;18.00;10.07;;;;;;;5.28;93.56;99389.78;4144767;28;20204;-90
2022/01/28 02:06:48;;;;;;;15.38;9.98;;;;;;;5.28;92.92;99382.03;4132276;28;20244;-90
2022/01/28 02:08:51;;;;;;;15.40;10.05;;;;;;;5.28;93.15;99376.88;4127525;28;20212;-90
2022/01/28 02:10:57;;;;;;;15.52;9.30;;;;;;;5.30;93.00;99374.25;4123325;28;20292;-90
2022/01/28 02:13:01;;;;;;;14.20;9.93;;;;;;;5.32;93.11;99375.03;4130809;28;20243;-90
2022/01/28 02:15:04;;;;;;;13.93;9.65;;;;;;;5.29;93.01;99383.75;4137757;28;20286;-90
2022/01/28 02:17:09;;;;;;;14.27;10.25;;;;;;;5.27;92.40;99385.50;4142286;28;20212;-90
2022/01/28 02:19:13;;;;;;;15.85;10.27;;;;;;;5.27;92.42;99379.50;4140899;28;20299;-90
2022/01/28 02:21:18;;;;;;;16.58;10.05;;;;;;;5.25;92.51;99378.69;4137575;28;20204;-90
2022/01/28 02:23:23;;;;;;;13.63;10.25;;;;;;;5.19;92.75;99381.44;4125771;28;20215;-90
2022/01/28 02:25:28;;;;;;;12.77;9.25;;;;;;;5.19;92.96;99386.63;4126282;28;20208;-90
2022/01/28 02:27:31;;;;;;;17.52;10.85;;;;;;;5.17;93.07;99389.25;4119957;28;20209;-90
2022/01/28 02:29:35;;;;;;;16.63;11.02;;;;;;;5.15;92.73;99382.41;4139022;28;20230;-89
2022/01/28 02:31:39;;;;;;;15.45;10.70;;;;;;;5.14;93.35;99393.63;4140178;28;20201;-90
2022/01/28 02:33:42;;;;;;;21.38;11.63;;;;;;;5.12;93.14;99374.72;4153051;28;20575;-90
2022/01/28 02:35:49;;;;;;;15.82;10.75;;;;;;;5.11;92.97;99375.59;4138622;28;20235;-89
2022/01/28 02:37:54;;;;;;;16.67;10.23;;;;;;;5.11;93.57;99383.34;4128408;28;20588;-89
2022/01/28 02:39:58;;;;;;;17.38;11.05;;;;;;;5.08;93.20;99383.44;4138593;28;20254;-89
2022/01/28 02:42:14;;;;;;;15.73;10.48;;;;;;;5.06;93.21;99386.97;4127479;28;20213;-89
2022/01/28 02:44:21;;;;;;;16.40;9.65;;;;;;;5.03;92.95;99382.72;4155208;28;20207;-89
2022/01/28 02:46:28;;;;;;;16.30;10.18;;;;;;;5.03;92.72;99381.88;4124322;28;20211;-89
2022/01/28 02:48:32;;;;;;;16.70;11.15;;;;;;;5.03;92.79;99390.47;4152487;28;20683;-89
2022/01/28 02:50:42;;;;;;;15.93;10.45;;;;;;;5.02;92.52;99393.09;4137087;28;20342;-89
2022/01/28 02:53:01;;;;;;;16.27;10.85;;;;;;;4.97;93.22;99393.22;4138556;28;20306;-89
2022/01/28 02:55:10;;;;;;;15.27;10.80;;;;;;;4.98;93.76;99400.09;4129105;28;20637;-89
2022/01/28 02:57:17;;;;;;;17.05;10.13;;;;;;;5.00;94.16;99394.88;4158886;28;20218;-89
2022/01/28 02:59:21;;;;;;;14.48;10.10;;;;;;;5.01;93.66;99400.00;4143114;28;20211;-89
2022/01/28 03:01:24;;;;;;;13.63;9.35;;;;;;;5.03;93.70;99400.81;4140391;28;20208;-89
2022/01/28 03:03:28;;;;;;;16.35;10.15;;;;;;;5.07;93.97;99401.59;4138743;28;20204;-89
2022/01/28 03:05:33;;;;;;;12.75;9.82;;;;;;;5.06;93.24;99395.56;4122974;28;20217;-89
2022/01/28 03:07:36;;;;;;;16.08;10.35;;;;;;;5.05;93.27;99404.22;4124986;28;20248;-89
2022/01/28 03:09:51;;;;;;;16.05;9.80;;;;;;;5.04;93.09;99402.53;4140973;28;20294;-89
2022/01/28 03:12:11;;;;;;;14.80;10.25;;;;;;;5.04;93.57;99415.44;4154819;28;20222;-90
2022/01/28 03:14:34;;;;;;;13.68;9.25;;;;;;;5.06;93.44;99418.00;4139881;28;20235;-89
2022/01/28 03:16:41;;;;;;;16.70;10.20;;;;;;;5.05;93.20;99421.44;4128508;28;20208;-89
2022/01/28 03:18:50;;;;;;;15.70;10.30;;;;;;;5.05;93.01;99424.03;4123532;28;20205;-88
2022/01/28 03:21:17;;;;;;;14.15;9.50;;;;;;;5.07;92.98;99417.13;4116780;28;20217;-89
2022/01/28 03:23:21;;;;;;;13.35;9.60;;;;;;;5.06;93.69;99423.16;4122639;28;20221;-89
2022/01/28 03:25:24;;;;;;;14.63;9.90;;;;;;;5.05;93.25;99418.88;4153784;28;20212;-89
2022/01/28 03:27:44;;;;;;;15.27;10.75;;;;;;;5.07;93.64;99419.69;4119594;28;20218;-89
2022/01/28 03:29:49;;;;;;;14.55;10.05;;;;;;;4.99;92.80;99409.56;4134885;28;20724;-89
2022/01/28 03:31:52;;;;;;;15.07;10.18;;;;;;;4.94;92.88;99418.28;4127557;28;20220;-89
2022/01/28 03:33:55;;;;;;;16.05;10.13;;;;;;;4.92;94.01;99427.84;4151545;28;20223;-89
2022/01/28 03:36:01;;;;;;;13.95;10.10;;;;;;;4.96;93.54;99413.94;4116994;28;20701;-89
2022/01/28 03:38:07;;;;;;;16.13;9.65;;;;;;;4.95;94.11;99420.84;4115973;28;20213;-89
2022/01/28 03:40:11;;;;;;;13.95;9.73;;;;;;;4.97;93.82;99410.47;4137688;28;20668;-89
2022/01/28 03:42:14;;;;;;;18.30;10.05;;;;;;;4.99;94.18;99411.25;4136479;28;20208;-89
2022/01/28 03:44:22;;;;;;;16.98;10.98;;;;;;;4.98;93.53;99418.19;4149163;28;20254;-89
2022/01/28 03:46:29;;;;;;;16.58;10.95;;;;;;;4.96;94.13;99419.97;4126696;28;20255;-89
2022/01/28 03:48:32;;;;;;;17.23;10.77;;;;;;;4.99;93.40;99425.06;4141262;28;20319;-89
2022/01/28 03:50:35;;;;;;;13.25;9.60;;;;;;;5.02;93.47;99435.31;4145077;28;20204;-89
2022/01/28 03:52:39;;;;;;;18.75;10.85;;;;;;;4.98;93.26;99438.03;4142914;28;20200;-89
2022/01/28 03:54:43;;;;;;;14.30;10.10;;;;;;;4.99;93.31;99429.34;4128741;28;20295;-89
2022/01/28 03:56:46;;;;;;;17.50;11.10;;;;;;;4.99;93.67;99444.88;4136029;28;20208;-89
2022/01/28 03:58:49;;;;;;;15.82;10.73;;;;;;;4.97;93.83;99447.47;4137164;28;20208;-89
2022/01/28 04:00:55;;;;;;;16.23;10.60;;;;;;;5.01;93.30;99448.28;4126741;28;20635;-89
2022/01/28 04:03:06;;;;;;;15.20;10.45;;;;;;;4.95;93.81;99446.69;4137934;28;20211;-89
2022/01/28 04:12:18;;;;;;;18.05;10.73;;;;;;;4.98;94.24;99454.38;4137739;28;20307;-89
2022/01/28 04:14:36;;;;;;;19.55;11.18;;;;;;;4.99;94.32;99460.38;4142982;28;20228;-89
2022/01/28 04:19:03;;;;;;;16.35;10.13;;;;;;;5.01;93.38;99466.38;4155587;28;20208;-89
2022/01/28 04:21:06;;;;;;;16.70;11.05;;;;;;;5.02;94.54;99473.22;4122728;28;20201;-89
2022/01/28 04:23:10;;;;;;;16.40;11.30;;;;;;;5.07;93.85;99471.41;4126282;28;20304;-89
2022/01/28 04:25:13;;;;;;;19.17;11.55;;;;;;;5.09;94.81;99482.53;4137376;28;20316;-89
2022/01/28 04:27:16;;;;;;;16.95;10.77;;;;;;;5.08;94.14;99470.47;4123969;28;20212;-89
2022/01/28 04:29:21;;;;;;;17.58;11.18;;;;;;;5.08;93.49;99475.66;4139143;28;20195;-89
2022/01/28 04:31:27;;;;;;;16.67;10.30;;;;;;;5.08;94.25;99478.25;4124493;28;20704;-89
2022/01/28 04:33:31;;;;;;;17.60;11.00;;;;;;;5.09;94.08;99482.53;4143067;28;20696;-89
2022/01/28 04:35:34;;;;;;;14.52;9.38;;;;;;;5.08;93.97;99494.59;4127278;28;20307;-89
2022/01/28 04:37:45;;;;;;;16.45;11.10;;;;;;;5.08;94.37;99502.34;4137557;28;22098;-89
2022/01/28 04:39:52;;;;;;;20.50;12.07;;;;;;;5.07;94.02;99510.16;4142648;28;20775;-89
2022/01/28 04:42:05;;;;;;;15.02;10.10;;;;;;;5.12;94.27;99513.47;4142926;28;20207;-89
2022/01/28 04:44:15;;;;;;;17.15;11.00;;;;;;;5.15;94.46;99507.34;4155096;28;20200;-90
2022/01/28 04:46:28;;;;;;;16.48;9.60;;;;;;;5.18;93.89;99515.00;4125861;28;20210;-89
2022/01/28 04:48:39;;;;;;;15.70;10.15;;;;;;;5.19;93.86;99515.88;4141225;28;20806;-89
2022/01/28 04:50:52;;;;;;;18.13;11.48;;;;;;;5.21;93.71;99522.69;4138893;28;20601;-89
2022/01/28 04:53:10;;;;;;;17.20;11.02;;;;;;;5.25;93.27;99516.56;4127307;28;20210;-89
2022/01/28 04:55:26;;;;;;;15.32;10.02;;;;;;;5.22;93.93;99506.31;4142266;28;20228;-89
2022/01/28 04:57:37;;;;;;;16.23;10.45;;;;;;;5.28;92.50;99515.66;4126192;28;20201;-89
2022/01/28 04:59:53;;;;;;;14.70;9.40;;;;;;;5.24;92.99;99514.88;4122488;28;20209;-89
2022/01/28 05:04:40;;;;;;;17.40;11.07;;;;;;;5.20;93.11;99528.78;4134777;28;20213;-89
2022/01/28 05:26:21;;;;;;;14.65;9.55;;;;;;;5.40;92.01;99536.06;4158977;28;20191;-89
2022/01/28 05:28:25;;;;;;;19.98;11.73;;;;;;;5.39;92.22;99530.00;4141405;28;20216;-89
2022/01/28 05:30:28;;;;;;;16.17;10.75;;;;;;;5.37;92.65;99531.78;4126492;28;20205;-89
2022/01/28 05:32:31;;;;;;;18.30;10.50;;;;;;;5.35;91.54;99543.06;4126659;28;22787;-89
2022/01/28 05:34:34;;;;;;;17.23;11.65;;;;;;;5.37;92.27;99552.47;4127593;28;20208;-89
2022/01/28 05:36:39;;;;;;;17.52;11.60;;;;;;;5.38;92.07;99554.19;4150667;28;20220;-89
2022/01/28 05:38:42;;;;;;;17.25;10.82;;;;;;;5.39;92.42;99553.28;4140660;28;20303;-90
2022/01/28 05:40:50;;;;;;;17.05;10.98;;;;;;;5.39;92.03;99549.84;4155700;28;20196;-90
2022/01/28 05:42:53;;;;;;;19.30;11.32;;;;;;;5.40;91.61;99557.59;4129533;28;20212;-90
2022/01/28 05:44:57;;;;;;;17.05;10.45;;;;;;;5.39;91.57;99558.44;4144785;28;20690;-89
2022/01/28 05:47:03;;;;;;;17.75;11.60;;;;;;;5.37;91.50;99564.56;4144356;28;20730;-90
2022/01/28 05:49:07;;;;;;;21.23;10.95;;;;;;;5.37;91.52;99562.81;4146241;28;20206;-90
2022/01/28 05:51:11;;;;;;;20.08;11.85;;;;;;;5.39;91.57;99571.38;4155969;28;20715;-90
2022/01/28 05:53:16;;;;;;;18.95;11.32;;;;;;;5.39;91.05;99578.31;4140120;28;20211;-90
2022/01/28 05:55:20;;;;;;;18.10;11.90;;;;;;;5.39;91.77;99581.72;4140715;28;20247;-90
2022/01/28 05:57:28;;;;;;;18.23;10.85;;;;;;;5.39;91.85;99576.56;4139080;28;20590;-89
2022/01/28 05:59:32;;;;;;;19.73;10.82;;;;;;;5.37;91.13;99583.53;4136453;28;20212;-90
2022/01/28 06:01:35;;;;;;;16.38;10.43;;;;;;;5.39;91.66;99592.06;4139266;28;20255;-90
2022/01/28 06:03:39;;;;;;;18.00;10.68;;;;;;;5.41;91.70;99599.81;4137359;28;20774;-90
2022/01/28 06:05:44;;;;;;;18.15;10.80;;;;;;;5.43;92.15;99598.06;4123146;28;20224;-88
2022/01/28 06:07:47;;;;;;;16.33;11.27;;;;;;;5.45;91.45;99601.44;4143143;28;20216;-90
2022/01/28 06:09:52;;;;;;;17.55;11.52;;;;;;;5.47;91.31;99603.09;4119065;28;20217;-89
2022/01/28 06:11:55;;;;;;;17.30;10.18;;;;;;;5.46;91.21;99619.50;4151951;28;20596;-90
2022/01/28 06:13:58;;;;;;;16.17;11.73;;;;;;;5.44;91.29;99616.13;4123370;28;20237;-89
2022/01/28 06:16:01;;;;;;;17.05;10.77;;;;;;;5.47;91.37;99616.03;4140231;28;20217;-89
2022/01/28 06:18:05;;;;;;;16.60;11.20;;;;;;;5.51;91.00;99624.56;4129113;28;20236;-89
2022/01/28 06:20:10;;;;;;;17.73;10.77;;;;;;;5.49;91.32;99624.63;4138906;28;20216;-89
2022/01/28 06:22:13;;;;;;;15.27;10.20;;;;;;;5.54;91.33;99640.88;4134697;28;20668;-90
2022/01/28 06:24:16;;;;;;;20.40;11.25;;;;;;;5.50;90.31;99635.81;4123819;28;20692;-90
2022/01/28 06:26:21;;;;;;;19.00;11.90;;;;;;;5.44;91.05;99642.00;4126343;28;20204;-89
2022/01/28 06:28:25;;;;;;;18.35;11.40;;;;;;;5.46;91.18;99645.38;4121985;28;20208;-90
2022/01/28 06:30:28;;;;;;;19.23;11.48;;;;;;;5.43;90.84;99631.69;4143918;28;20212;-89
2022/01/28 06:32:34;;;;;;;20.85;12.82;;;;;;;5.43;91.20;99639.44;4124260;28;20204;-90
2022/01/28 06:34:38;;;;;;;18.70;11.48;;;;;;;5.41;90.82;99642.06;4160285;28;20206;-90
2022/01/28 06:36:41;;;;;;;15.15;10.25;;;;;;;5.41;91.19;99648.94;4121757;28;20225;-90
2022/01/28 06:38:45;;;;;;;17.27;11.90;;;;;;;5.41;91.19;99652.41;4139161;28;20216;-91
2022/01/28 06:40:49;;;;;;;19.40;11.35;;;;;;;5.40;90.97;99649.84;4120803;28;20469;-91
2022/01/28 06:42:58;;;;;;;17.45;11.48;;;;;;;5.39;91.40;99641.22;4120932;28;20197;-87
2022/01/28 06:45:02;;;;;;;21.08;12.07;;;;;;;5.43;90.87;99640.28;4140253;28;20207;-85
2022/01/28 06:47:10;;;;;;;18.60;11.35;;;;;;;5.41;90.86;99648.94;4150134;28;20187;-87
2022/01/28 06:49:13;;;;;;;19.60;10.38;;;;;;;5.40;90.62;99649.84;4137159;28;20204;-86
2022/01/28 06:51:17;;;;;;;17.83;11.35;;;;;;;5.39;91.32;99651.56;4120708;28;20749;-89
2022/01/28 06:53:20;;;;;;;19.85;11.75;;;;;;;5.39;90.68;99648.97;4141977;28;20223;-86
2022/01/28 06:55:23;;;;;;;20.63;12.27;;;;;;;5.39;90.90;99643.81;4155448;28;20651;-84
2022/01/28 06:57:26;;;;;;;21.00;12.20;;;;;;;5.39;91.31;99651.56;4154049;28;20201;-84
2022/01/28 06:59:30;;;;;;;20.90;12.65;;;;;;;5.39;90.79;99655.91;4126943;28;20363;-84
2022/01/28 07:01:33;;;;;;;22.83;12.95;;;;;;;5.40;90.89;99650.69;4135206;28;20204;-85
2022/01/28 07:03:37;;;;;;;19.27;12.27;;;;;;;5.41;91.09;99651.53;4156880;28;20698;-85
2022/01/28 07:05:40;;;;;;;20.25;13.10;;;;;;;5.41;90.96;99657.56;4124370;28;20213;-85
2022/01/28 07:07:44;;;;;;;23.42;12.65;;;;;;;5.41;91.04;99667.94;4141835;28;20210;-85
2022/01/28 07:09:48;;;;;;;23.38;13.35;;;;;;;5.45;91.33;99684.22;4155054;28;20203;-85
2022/01/28 07:11:51;;;;;;;19.25;12.40;;;;;;;5.46;91.41;99684.19;4125669;28;20205;-86
2022/01/28 07:13:54;;;;;;;24.73;13.20;;;;;;;5.42;90.77;99674.78;4154981;28;20235;-87
2022/01/28 07:15:59;;;;;;;22.98;12.23;;;;;;;5.41;90.98;99678.28;4139216;28;20254;-87
2022/01/28 07:18:04;;;;;;;21.23;12.10;;;;;;;5.41;90.86;99683.44;4122510;28;20670;-87
2022/01/28 07:20:08;;;;;;;20.77;12.15;;;;;;;5.43;90.83;99691.16;4119748;28;20245;-87
2022/01/28 07:22:14;;;;;;;20.75;12.40;;;;;;;5.46;90.93;99691.06;4124613;28;20201;-87
2022/01/28 07:24:18;;;;;;;18.80;12.55;;;;;;;5.46;91.44;99699.69;4122965;28;20209;-87
2022/01/28 07:26:24;;;;;;;17.83;12.02;;;;;;;5.43;90.88;99694.59;4121047;28;20232;-87
2022/01/28 07:28:27;;;;;;;19.58;12.45;;;;;;;5.47;91.11;99687.59;4145322;28;20200;-87
2022/01/28 07:30:31;;;;;;;22.42;13.68;;;;;;;5.49;91.09;99684.09;4145474;28;20203;-87
2022/01/28 07:32:36;;;;;;;25.05;13.30;;;;;;;5.51;91.15;99684.06;4161800;28;20208;-87
2022/01/28 07:34:39;;;;;;;22.67;13.27;;;;;;;5.54;90.92;99687.44;4138583;28;20209;-87
2022/01/28 07:36:44;;;;;;;22.60;13.15;;;;;;;5.57;91.49;99695.13;4124509;28;20232;-84
2022/01/28 07:38:48;;;;;;;22.40;12.95;;;;;;;5.59;91.13;99700.25;4141873;28;20248;-84
2022/01/28 07:40:51;;;;;;;19.45;12.88;;;;;;;5.59;91.09;99703.69;4142495;28;20208;-84
2022/01/28 07:42:54;;;;;;;23.13;13.25;;;;;;;5.62;91.05;99704.50;4137087;28;20295;-82
2022/01/28 07:44:58;;;;;;;22.10;12.40;;;;;;;5.64;91.43;99707.06;4155442;28;20250;-86
2022/01/28 07:47:01;;;;;;;20.15;13.27;;;;;;;5.64;90.88;99713.06;4126099;28;20205;-86
2022/01/28 07:49:06;;;;;;;21.80;12.55;;;;;;;5.64;91.10;99712.22;4130957;28;20216;-88
2022/01/28 07:51:09;;;;;;;20.17;12.07;;;;;;;5.64;91.14;99713.06;4127844;28;20204;-86
2022/01/28 07:53:17;;;;;;;21.30;13.48;;;;;;;5.63;91.23;99713.09;4143706;28;20204;-88
2022/01/28 07:55:20;;;;;;;19.38;12.02;;;;;;;5.60;90.68;99711.41;4154905;28;20210;-87
2022/01/28 07:57:23;;;;;;;22.73;12.93;;;;;;;5.62;90.90;99708.78;4143047;28;20228;-87
2022/01/28 07:59:26;;;;;;;20.05;12.07;;;;;;;5.61;91.07;99705.38;4132822;28;20217;-88
2022/01/28 08:01:31;;;;;;;23.30;11.80;;;;;;;5.63;91.03;99702.75;4139886;28;20205;-88
2022/01/28 08:03:34;;;;;;;19.42;12.15;;;;;;;5.62;91.43;99709.66;4132838;28;20224;-87
2022/01/28 08:05:39;;;;;;;20.73;11.55;;;;;;;5.64;91.23;99723.41;4131899;28;20304;-87
2022/01/28 08:07:43;;;;;;;18.75;11.30;;;;;;;5.67;91.60;99727.69;4131370;28;20302;-87
2022/01/28 08:09:46;;;;;;;20.20;12.82;;;;;;;5.68;90.80;99729.34;4127959;28;20205;-87
2022/01/28 08:11:50;;;;;;;20.15;13.20;;;;;;;5.66;91.08;99731.97;4131913;28;20265;-86
2022/01/28 08:13:53;;;;;;;20.30;12.68;;;;;;;5.69;91.27;99731.06;4138834;28;20264;-87
2022/01/28 08:15:59;;;;;;;21.23;13.23;;;;;;;5.72;90.45;99737.03;4124561;28;20220;-88
2022/01/28 08:18:03;;;;;;;20.70;12.60;;;;;;;5.76;90.42;99743.03;4130723;28;20224;-88
2022/01/28 08:20:07;;;;;;;18.85;12.60;;;;;;;5.74;90.65;99744.78;4131299;28;20264;-88
2022/01/28 08:22:12;;;;;;;21.52;12.25;;;;;;;5.79;90.97;99742.97;4129595;28;20213;-88
2022/01/28 08:24:15;;;;;;;20.17;12.02;;;;;;;5.79;90.25;99748.13;4131115;28;20317;-88
2022/01/28 08:26:19;;;;;;;18.38;12.02;;;;;;;5.79;90.55;99740.38;4144922;28;20208;-89
2022/01/28 08:28:24;;;;;;;16.40;11.27;;;;;;;5.82;90.75;99743.72;4124776;28;20215;-88
2022/01/28 08:30:32;;;;;;;21.77;12.00;;;;;;;5.84;90.46;99736.78;4144932;28;20672;-89
2022/01/28 08:32:36;;;;;;;22.00;12.80;;;;;;;5.78;90.46;99741.25;4130561;28;20577;-88
2022/01/28 08:34:39;;;;;;;17.27;11.30;;;;;;;5.79;90.52;99750.72;4145089;28;21011;-89
2022/01/28 08:36:42;;;;;;;22.40;13.40;;;;;;;5.82;90.48;99750.66;4128849;28;20208;-88
2022/01/28 08:38:48;;;;;;;21.42;11.80;;;;;;;5.84;90.78;99749.72;4152034;28;20218;-89
2022/01/28 08:40:54;;;;;;;16.05;11.25;;;;;;;5.89;90.48;99745.28;4142157;28;20208;-89
2022/01/28 08:42:57;;;;;;;17.98;11.75;;;;;;;5.93;90.59;99748.66;4154459;28;20197;-89
2022/01/28 08:45:00;;;;;;;20.92;12.25;;;;;;;5.96;89.83;99749.44;4148143;28;20275;-89
2022/01/28 08:47:04;;;;;;;23.30;13.82;;;;;;;5.94;90.00;99747.75;4161349;28;20687;-89
2022/01/28 08:49:08;;;;;;;16.35;10.85;;;;;;;5.96;89.88;99752.03;4146713;28;20211;-89
2022/01/28 08:51:12;;;;;;;18.00;11.38;;;;;;;6.00;90.01;99742.44;4121779;28;20705;-89
2022/01/28 08:53:18;;;;;;;20.10;12.00;;;;;;;6.03;89.50;99750.13;4142692;28;20234;-89
2022/01/28 08:55:24;;;;;;;18.58;12.27;;;;;;;6.04;90.14;99749.25;4158570;28;20616;-90
2022/01/28 08:57:27;;;;;;;22.33;12.65;;;;;;;6.10;89.93;99761.19;4144494;28;20228;-89
2022/01/28 08:59:31;;;;;;;19.10;12.00;;;;;;;6.12;90.05;99758.56;4124645;28;20308;-89
2022/01/28 09:01:34;;;;;;;17.60;11.65;;;;;;;6.16;89.68;99760.16;4127570;28;20243;-91
2022/01/28 09:03:40;;;;;;;23.63;14.57;;;;;;;6.21;89.91;99759.16;4125787;28;20785;-88
2022/01/28 09:05:46;;;;;;;21.65;13.40;;;;;;;6.26;89.34;99769.41;4157524;28;20204;-89
2022/01/28 09:07:50;;;;;;;20.98;13.00;;;;;;;6.29;90.21;99766.75;4122355;28;20300;-88
2022/01/28 09:09:58;;;;;;;19.27;11.52;;;;;;;6.35;89.87;99757.09;4139368;28;20216;-89
2022/01/28 09:12:19;;;;;;;23.02;11.57;;;;;;;6.38;89.40;99761.34;4130872;28;20212;-88
2022/01/28 09:14:22;;;;;;;19.17;11.80;;;;;;;6.41;88.94;99767.28;4128393;28;20788;-89
2022/01/28 09:16:26;;;;;;;22.25;11.45;;;;;;;6.38;88.78;99762.19;4134662;28;20638;-89
2022/01/28 09:18:29;;;;;;;18.35;11.10;;;;;;;6.38;88.67;99762.19;4149471;28;20656;-88
2022/01/28 09:20:34;;;;;;;20.10;11.02;;;;;;;6.39;88.56;99757.84;4155843;28;20203;-89
2022/01/28 09:22:38;;;;;;;20.25;11.95;;;;;;;6.37;88.58;99770.84;4153265;28;20207;-89
2022/01/28 09:24:43;;;;;;;16.00;10.25;;;;;;;6.38;88.70;99769.97;4162884;28;20203;-89
2022/01/28 09:26:46;;;;;;;19.02;10.80;;;;;;;6.40;88.50;99769.91;4130615;28;20228;-89
2022/01/28 09:28:50;;;;;;;21.23;11.98;;;;;;;6.43;88.90;99775.88;4138373;28;20264;-89
2022/01/28 09:30:53;;;;;;;18.00;11.10;;;;;;;6.45;88.21;99778.41;4125303;28;20213;-88
2022/01/28 09:32:58;;;;;;;19.02;10.70;;;;;;;6.41;87.83;99782.84;4139023;28;20210;-89
2022/01/28 09:35:03;;;;;;;16.55;10.35;;;;;;;6.48;89.05;99793.88;4118420;28;20217;-89
2022/01/28 09:37:08;;;;;;;19.55;11.60;;;;;;;6.53;88.72;99785.13;4127331;28;20215;-89
2022/01/28 09:39:13;;;;;;;18.00;11.00;;;;;;;6.58;88.76;99778.94;4136850;28;20208;-89
2022/01/28 09:41:16;;;;;;;17.48;11.32;;;;;;;6.63;88.94;99771.03;4134277;28;20223;-88
2022/01/28 09:43:20;;;;;;;14.30;9.93;;;;;;;6.67;87.56;99777.84;4153497;28;20204;-88
2022/01/28 09:45:25;;;;;;;18.02;10.82;;;;;;;6.69;88.49;99781.22;4125296;28;20216;-89
2022/01/28 09:47:32;;;;;;;15.35;10.38;;;;;;;6.69;87.40;99778.63;4131596;28;20208;-88
2022/01/28 09:49:36;;;;;;;16.35;10.30;;;;;;;6.67;86.96;99776.09;4128642;28;20205;-89
2022/01/28 09:51:40;;;;;;;17.73;10.32;;;;;;;6.72;86.78;99783.75;4143132;28;20302;-89
2022/01/28 09:53:43;;;;;;;18.27;10.55;;;;;;;6.73;86.45;99788.06;4146266;28;20200;-88
2022/01/28 09:55:47;;;;;;;17.88;10.52;;;;;;;6.75;86.50;99794.91;4153612;28;20631;-89
2022/01/28 09:57:55;;;;;;;16.77;9.77;;;;;;;6.78;86.58;99799.16;4146751;28;20623;-89
2022/01/28 09:59:58;;;;;;;19.55;10.13;;;;;;;6.85;87.98;99803.28;4142522;28;20204;-88
2022/01/28 10:02:02;;;;;;;21.35;10.73;;;;;;;6.88;87.51;99796.28;4120934;28;20217;-89
2022/01/28 10:04:08;;;;;;;18.25;10.25;;;;;;;6.93;86.15;99790.97;4138264;28;20266;-89
2022/01/28 10:06:30;;;;;;;15.32;9.00;;;;;;;7.05;86.35;99796.66;4139131;28;20215;-89
2022/01/28 10:08:34;;;;;;;15.63;9.10;;;;;;;7.04;86.21;99793.22;4118444;28;20217;-89
2022/01/28 10:10:43;;;;;;;17.45;9.77;;;;;;;7.02;85.63;99798.50;4117617;28;20260;-89
2022/01/28 10:12:51;;;;;;;19.08;10.40;;;;;;;7.03;86.54;99787.25;4136784;28;20765;-89
2022/01/28 10:15:16;;;;;;;16.23;9.60;;;;;;;7.08;86.54;99787.06;4124608;28;20267;-89
2022/01/28 10:17:21;;;;;;;13.23;8.88;;;;;;;7.24;86.09;99785.75;4160860;28;20203;-89
2022/01/28 10:19:26;;;;;;;16.13;9.48;;;;;;;7.28;85.68;99786.53;4150985;28;20232;-89
2022/01/28 10:21:36;;;;;;;14.82;9.80;;;;;;;7.26;85.40;99789.16;4137589;28;20273;-90
2022/01/28 10:23:39;;;;;;;15.23;9.40;;;;;;;7.29;85.27;99790.81;4119636;28;20231;-89
2022/01/28 10:25:43;;;;;;;14.77;9.10;;;;;;;7.32;84.87;99789.00;4157290;28;20226;-89
2022/01/28 10:27:57;;;;;;;14.95;9.18;;;;;;;7.28;84.60;99797.75;4129385;28;20201;-89
2022/01/28 10:30:06;;;;;;;13.10;8.25;;;;;;;7.24;86.17;99796.13;4144694;28;20207;-90
2022/01/28 10:32:11;;;;;;;15.70;9.20;;;;;;;7.21;84.54;99800.56;4145962;28;20212;-89
2022/01/28 10:34:23;;;;;;;17.35;9.40;;;;;;;7.20;85.66;99794.53;4139082;28;20238;-90
2022/01/28 10:36:27;;;;;;;15.13;9.25;;;;;;;7.15;85.72;99788.59;4139773;28;20573;-89
2022/01/28 10:38:32;;;;;;;15.10;9.45;;;;;;;7.18;84.77;99796.28;4115100;28;20264;-89
2022/01/28 10:40:35;;;;;;;13.32;9.50;;;;;;;7.21;84.32;99783.22;4135418;28;20294;-89
2022/01/28 10:42:41;;;;;;;14.25;8.43;;;;;;;7.20;84.98;99781.56;4120057;28;20205;-89